Hopewell, Illinois
Current Conditions -  °F | °C
As of 10:15 AM on Wednesday 26 Nov 2014 (Local Time) from KC75 Reporting Station
Broken Clouds Broken Clouds  
Wind Chill: 18°   Ceiling: 1000
Heat Index: 27°   Visibility: 7mi
Dew Point: 23°   Wind: 9mph
Humidity: 83%   Direction: 120°ESE
Pressure: 30.11"   Gusts: 16mph
Location:  41.0186°N, 89.479°W
Report Text: KC75 261615Z AUTO 12008G14KT 7SM BKN010 M03/M05 A3011 RMK AO2 T10261051
Loading
Personal Weather Stations






























Interactive Weather Map New forecast layout! Learn more

10-Day Weather Forecast

Advertisements
Track Severe Weather on mobile